createdAt,value
2023-01-19T00:00:29.201Z,0.18
2023-01-19T00:02:56.404Z,0.17
2023-01-19T00:05:23.200Z,0.19
2023-01-19T00:07:49.985Z,0.22
2023-01-19T00:10:17.156Z,0.27
2023-01-19T00:12:44.070Z,0.32
2023-01-19T00:15:11.438Z,0.35
2023-01-19T00:17:41.001Z,0.39
2023-01-19T00:20:09.823Z,0.38
2023-01-19T00:22:36.641Z,0.37
2023-01-19T00:25:03.975Z,0.33
2023-01-19T00:27:34.908Z,0.29
2023-01-19T00:30:02.416Z,0.26
2023-01-19T00:32:29.376Z,0.26
2023-01-19T00:34:56.198Z,0.30
2023-01-19T00:37:23.250Z,0.35
2023-01-19T00:39:50.365Z,0.40
2023-01-19T00:42:32.616Z,0.45
2023-01-19T00:44:59.680Z,0.48
2023-01-19T00:47:26.443Z,0.46
2023-01-19T00:49:53.186Z,0.45
2023-01-19T00:52:20.164Z,0.43
2023-01-19T00:54:47.078Z,0.43
2023-01-19T00:57:15.620Z,0.43
2023-01-19T00:59:42.697Z,0.43
2023-01-19T01:02:09.622Z,0.45
2023-01-19T01:04:36.451Z,0.48
2023-01-19T01:07:04.304Z,0.52
2023-01-19T01:09:31.205Z,0.55
2023-01-19T01:11:57.977Z,0.56
2023-01-19T01:14:26.681Z,0.54
2023-01-19T01:16:53.635Z,0.50
2023-01-19T01:19:21.528Z,0.50
2023-01-19T01:21:48.320Z,0.50
2023-01-19T01:24:15.118Z,0.53
2023-01-19T01:26:41.941Z,0.57
2023-01-19T01:29:08.742Z,0.61
2023-01-19T01:31:35.574Z,0.63
2023-01-19T01:34:02.567Z,0.63
2023-01-19T01:36:32.188Z,0.63
2023-01-19T01:39:00.121Z,0.66
2023-01-19T01:41:27.717Z,0.70
2023-01-19T01:44:01.768Z,0.75
2023-01-19T01:46:31.467Z,0.79
2023-01-19T01:49:05.758Z,0.83
2023-01-19T01:51:37.408Z,0.86
2023-01-19T01:54:19.623Z,0.87
2023-01-19T01:56:49.097Z,0.89
2023-01-19T01:59:29.852Z,0.87
2023-01-19T02:02:15.838Z,0.88
2023-01-19T02:04:54.356Z,0.89
2023-01-19T02:07:45.375Z,0.91
2023-01-19T02:10:27.266Z,0.96
2023-01-19T02:13:10.033Z,0.97
2023-01-19T02:15:36.983Z,1.02
2023-01-19T02:18:04.038Z,1.02
2023-01-19T02:20:35.846Z,1.01
2023-01-19T02:23:07.417Z,1.00
2023-01-19T02:25:34.484Z,1.00
2023-01-19T02:28:01.387Z,1.01
2023-01-19T02:30:28.784Z,1.02
2023-01-19T02:32:55.644Z,1.02
2023-01-19T02:35:23.667Z,1.02
2023-01-19T02:37:51.691Z,1.00
2023-01-19T02:40:21.223Z,0.97
2023-01-19T02:42:51.112Z,0.95
2023-01-19T02:45:21.912Z,0.91
2023-01-19T02:47:51.204Z,0.91
2023-01-19T02:50:34.434Z,0.91
2023-01-19T02:53:23.676Z,0.94
2023-01-19T02:56:03.888Z,0.93
2023-01-19T02:58:52.738Z,0.92
2023-01-19T03:01:21.755Z,0.90
2023-01-19T03:03:58.673Z,0.87
2023-01-19T03:06:39.142Z,0.83
2023-01-19T03:09:15.000Z,0.77
2023-01-19T03:11:47.087Z,0.74
2023-01-19T03:14:21.752Z,0.74
2023-01-19T03:16:55.890Z,0.75
2023-01-19T03:19:24.899Z,0.78
2023-01-19T03:21:57.615Z,0.79
2023-01-19T03:24:25.714Z,0.80
2023-01-19T03:26:58.988Z,0.82
2023-01-19T03:29:30.219Z,0.81
2023-01-19T03:31:59.877Z,0.77
2023-01-19T03:34:29.061Z,0.71
2023-01-19T03:37:00.588Z,0.68
2023-01-19T03:39:28.881Z,0.68
2023-01-19T03:42:02.421Z,0.70
2023-01-19T03:44:31.265Z,0.74
2023-01-19T03:46:59.910Z,0.77
2023-01-19T03:49:27.249Z,0.81
2023-01-19T03:51:59.071Z,0.83
2023-01-19T03:54:27.101Z,0.82
2023-01-19T03:56:54.132Z,0.79
2023-01-19T03:59:21.862Z,0.76
2023-01-19T04:01:48.748Z,0.76
2023-01-19T04:04:15.823Z,0.76
2023-01-19T04:06:43.374Z,0.76
2023-01-19T04:09:10.309Z,0.80
2023-01-19T04:11:37.035Z,0.83
2023-01-19T04:14:04.289Z,0.86
2023-01-19T04:16:31.082Z,0.88
2023-01-19T04:18:58.026Z,0.89
2023-01-19T04:21:24.930Z,0.90
2023-01-19T04:23:53.290Z,0.87
2023-01-19T04:26:20.313Z,0.82
2023-01-19T04:28:47.104Z,0.78
2023-01-19T04:31:14.433Z,0.76
2023-01-19T04:33:41.385Z,0.79
2023-01-19T04:36:08.761Z,0.81
2023-01-19T04:38:36.028Z,0.82
2023-01-19T04:41:02.768Z,0.83
2023-01-19T04:43:29.633Z,0.83
2023-01-19T04:45:56.903Z,0.80
2023-01-19T04:48:24.037Z,0.80
2023-01-19T04:50:52.512Z,0.79
2023-01-19T04:53:19.486Z,0.81
2023-01-19T04:55:46.896Z,0.82
2023-01-19T04:58:14.107Z,0.84
2023-01-19T05:00:40.847Z,0.83
2023-01-19T05:03:07.650Z,0.83
2023-01-19T05:05:34.595Z,0.84
2023-01-19T05:08:01.397Z,0.82
2023-01-19T05:10:28.813Z,0.81
2023-01-19T05:12:55.832Z,0.81
2023-01-19T05:15:23.047Z,0.83
2023-01-19T05:17:49.830Z,0.86
2023-01-19T05:20:17.554Z,0.88
2023-01-19T05:22:52.857Z,0.90
2023-01-19T05:25:20.333Z,0.91
2023-01-19T05:27:47.126Z,0.91
2023-01-19T05:30:14.441Z,0.89
2023-01-19T05:32:41.617Z,0.86
2023-01-19T05:35:09.206Z,0.81
2023-01-19T05:37:35.961Z,0.82
2023-01-19T05:40:02.815Z,0.83
2023-01-19T05:42:31.913Z,0.87
2023-01-19T05:44:59.958Z,0.88
2023-01-19T05:47:29.342Z,0.90
2023-01-19T05:49:56.480Z,0.89
2023-01-19T05:52:25.054Z,0.88
2023-01-19T05:54:51.954Z,0.83
2023-01-19T05:57:19.209Z,0.80
2023-01-19T05:59:45.969Z,0.76
2023-01-19T06:02:12.961Z,0.76
2023-01-19T06:04:39.824Z,0.77
2023-01-19T06:07:07.728Z,0.80
2023-01-19T06:09:34.514Z,0.82
2023-01-19T06:12:01.592Z,0.76
2023-01-19T06:14:28.344Z,0.56
2023-01-19T06:16:55.348Z,0.36
2023-01-19T06:19:22.196Z,0.24
2023-01-19T06:21:52.143Z,0.19
2023-01-19T06:24:19.509Z,0.12
2023-01-19T06:26:46.465Z,0.04
2023-01-19T06:29:14.546Z,0.04
2023-01-19T06:31:42.007Z,0.06
2023-01-19T06:34:09.666Z,0.06
2023-01-19T06:36:36.872Z,0.09
2023-01-19T06:39:06.004Z,0.12
2023-01-19T06:41:34.198Z,0.07
2023-01-19T06:44:01.989Z,0.12
2023-01-19T06:46:29.688Z,0.20
2023-01-19T06:48:56.787Z,0.28
2023-01-19T06:51:24.136Z,0.33
2023-01-19T06:53:51.076Z,0.38
2023-01-19T06:56:17.885Z,0.43
2023-01-19T06:58:47.451Z,0.46
2023-01-19T07:01:14.593Z,0.49
2023-01-19T07:03:41.460Z,0.50
2023-01-19T07:06:08.776Z,0.50
2023-01-19T07:08:36.997Z,0.47
2023-01-19T07:11:26.264Z,0.48
2023-01-19T07:13:54.685Z,0.34
2023-01-19T07:16:21.688Z,0.23
2023-01-19T07:18:49.570Z,0.14
2023-01-19T07:21:16.822Z,0.06
2023-01-19T07:23:43.673Z,0.03
2023-01-19T07:26:10.961Z,0.06
2023-01-19T07:28:37.905Z,0.16
2023-01-19T07:31:04.897Z,0.20
2023-01-19T07:33:31.855Z,0.15
2023-01-19T07:35:58.747Z,0.10
2023-01-19T07:38:25.679Z,0.16
2023-01-19T07:40:52.409Z,0.22
2023-01-19T07:43:19.831Z,0.23
2023-01-19T07:45:46.769Z,0.25
2023-01-19T07:48:13.565Z,0.33
2023-01-19T07:50:40.361Z,0.45
2023-01-19T07:53:08.922Z,0.50
2023-01-19T07:55:35.940Z,0.53
2023-01-19T07:58:06.678Z,0.59
2023-01-19T08:00:35.422Z,0.65
2023-01-19T08:03:04.157Z,0.70
2023-01-19T08:05:32.628Z,0.77
2023-01-19T08:07:59.412Z,0.86
2023-01-19T08:10:28.373Z,0.93
2023-01-19T08:12:56.410Z,0.99
2023-01-19T08:15:24.843Z,1.05
2023-01-19T08:18:09.621Z,1.06
2023-01-19T08:20:36.681Z,1.03
2023-01-19T08:23:04.940Z,1.01
2023-01-19T08:25:34.254Z,1.03
2023-01-19T08:28:01.646Z,1.06
2023-01-19T08:30:28.504Z,1.09
2023-01-19T08:33:04.472Z,1.15
2023-01-19T08:35:32.525Z,1.13
2023-01-19T08:38:01.635Z,1.09
2023-01-19T08:40:30.164Z,1.13
2023-01-19T08:43:01.943Z,1.18
2023-01-19T08:45:31.104Z,1.15
2023-01-19T08:48:00.207Z,1.14
2023-01-19T08:50:29.124Z,1.17
2023-01-19T08:52:58.138Z,1.27
2023-01-19T08:55:25.738Z,1.38
2023-01-19T08:57:53.827Z,1.47
2023-01-19T09:00:21.504Z,1.56
2023-01-19T09:02:49.032Z,1.63
2023-01-19T09:05:16.058Z,1.73
2023-01-19T09:07:44.527Z,1.88
2023-01-19T09:10:12.042Z,2.04
2023-01-19T09:12:38.773Z,2.18
2023-01-19T09:15:06.187Z,2.31
2023-01-19T09:17:33.643Z,2.38
2023-01-19T09:20:00.421Z,2.44
2023-01-19T09:22:27.228Z,2.51
2023-01-19T09:24:53.953Z,2.59
2023-01-19T09:27:20.789Z,2.69
2023-01-19T09:29:52.605Z,2.76
2023-01-19T09:32:20.975Z,2.74
2023-01-19T09:34:48.061Z,2.55
2023-01-19T09:37:16.334Z,2.45
2023-01-19T09:39:43.217Z,2.32
2023-01-19T09:42:22.450Z,2.20
2023-01-19T09:44:51.014Z,2.22
2023-01-19T09:47:24.162Z,2.23
2023-01-19T09:49:58.853Z,2.32
2023-01-19T09:52:25.935Z,2.45
2023-01-19T09:54:55.117Z,2.49
2023-01-19T09:57:24.049Z,2.48
2023-01-19T09:59:51.605Z,2.50
2023-01-19T10:02:26.308Z,2.52
2023-01-19T10:05:08.786Z,2.52
2023-01-19T10:07:58.229Z,2.53
2023-01-19T10:10:28.391Z,2.58
2023-01-19T10:12:56.257Z,2.60
2023-01-19T10:15:52.977Z,2.60
2023-01-19T10:18:25.693Z,2.57
2023-01-19T10:20:52.480Z,2.53
2023-01-19T10:23:39.890Z,2.51
2023-01-19T10:26:22.908Z,2.54
2023-01-19T10:28:53.157Z,2.55
2023-01-19T10:31:24.093Z,2.53
2023-01-19T10:33:52.591Z,2.48
2023-01-19T10:36:26.379Z,2.48
2023-01-19T10:38:53.423Z,2.49
2023-01-19T10:41:28.560Z,2.47
2023-01-19T10:44:05.509Z,2.46
2023-01-19T10:46:37.376Z,2.47
2023-01-19T10:49:05.703Z,2.48
2023-01-19T10:51:32.592Z,2.48
2023-01-19T10:54:03.222Z,2.41
2023-01-19T10:56:35.136Z,2.36
2023-01-19T10:59:04.665Z,2.38
2023-01-19T11:01:36.042Z,2.40
2023-01-19T11:04:22.267Z,2.43
2023-01-19T11:06:49.080Z,2.46
2023-01-19T11:09:18.910Z,2.48
2023-01-19T11:11:49.421Z,2.46
2023-01-19T11:14:20.299Z,2.42
2023-01-19T11:16:51.599Z,2.45
2023-01-19T11:19:24.726Z,2.46
2023-01-19T11:21:51.996Z,2.48
2023-01-19T11:24:20.125Z,2.49
2023-01-19T11:26:50.357Z,2.51
2023-01-19T11:29:23.998Z,2.50
2023-01-19T11:31:51.826Z,2.48
2023-01-19T11:34:24.228Z,2.44
2023-01-19T11:37:01.502Z,2.42
2023-01-19T11:39:31.435Z,2.40
2023-01-19T11:42:02.787Z,2.41
2023-01-19T11:44:32.989Z,2.43
2023-01-19T11:47:02.158Z,2.44
2023-01-19T11:49:37.517Z,2.43
2023-01-19T11:52:25.833Z,2.42
2023-01-19T11:55:17.461Z,2.43
2023-01-19T11:57:47.820Z,2.43
2023-01-19T12:00:24.831Z,2.43
2023-01-19T12:02:57.453Z,2.45
2023-01-19T12:05:29.734Z,2.48
2023-01-19T12:08:03.039Z,2.37
2023-01-19T12:10:36.416Z,2.25
2023-01-19T12:13:04.054Z,2.16
2023-01-19T12:15:47.370Z,2.09
2023-01-19T12:18:21.859Z,2.09
2023-01-19T12:20:52.996Z,2.11
2023-01-19T12:23:20.796Z,2.15
2023-01-19T12:25:47.602Z,2.18
2023-01-19T12:28:17.476Z,2.15
2023-01-19T12:30:44.586Z,2.09
2023-01-19T12:33:26.575Z,2.05
2023-01-19T12:36:03.965Z,2.01
2023-01-19T12:38:35.205Z,2.00
2023-01-19T12:41:33.329Z,2.03
2023-01-19T12:44:20.672Z,2.04
2023-01-19T12:47:20.322Z,2.09
2023-01-19T12:49:51.496Z,2.11
2023-01-19T12:52:19.815Z,2.10
2023-01-19T12:54:57.659Z,2.07
2023-01-19T12:57:32.748Z,2.06
2023-01-19T13:00:07.142Z,2.09
2023-01-19T13:02:42.802Z,2.12
2023-01-19T13:05:10.641Z,2.13
2023-01-19T13:08:09.477Z,2.15
2023-01-19T13:10:52.809Z,2.15
2023-01-19T13:13:25.212Z,2.12
2023-01-19T13:15:55.762Z,2.10
2023-01-19T13:18:28.355Z,2.09
2023-01-19T13:21:00.206Z,2.09
2023-01-19T13:23:29.717Z,2.10
2023-01-19T13:26:04.906Z,2.06
2023-01-19T13:28:39.304Z,2.04
2023-01-19T13:31:07.209Z,1.99
2023-01-19T13:33:44.329Z,1.94
2023-01-19T13:36:22.611Z,1.91
2023-01-19T13:38:51.695Z,1.91
2023-01-19T13:41:23.121Z,1.87
2023-01-19T13:44:05.395Z,1.79
2023-01-19T13:46:33.679Z,1.70
2023-01-19T13:49:13.804Z,1.62
2023-01-19T13:51:40.639Z,1.56
2023-01-19T13:54:16.889Z,1.54
2023-01-19T21:57:08.799Z,3.35
2023-01-19T21:59:35.730Z,3.18
2023-01-19T22:02:02.634Z,2.97
2023-01-19T22:04:29.920Z,2.75
2023-01-19T22:06:56.635Z,2.60
2023-01-19T22:09:23.434Z,2.48
2023-01-19T22:11:50.251Z,2.39
2023-01-19T22:14:17.030Z,2.34
2023-01-19T22:16:44.174Z,2.28
2023-01-19T22:19:12.996Z,2.22
2023-01-19T22:21:40.085Z,2.13
2023-01-19T22:24:07.422Z,2.06
2023-01-19T22:26:35.055Z,1.99
2023-01-19T22:29:03.840Z,1.89
2023-01-19T22:31:31.135Z,1.80
2023-01-19T22:33:58.773Z,1.71
2023-01-19T22:36:29.016Z,1.66
2023-01-19T22:38:59.733Z,1.62
2023-01-19T22:41:31.980Z,1.58
2023-01-19T22:44:01.896Z,1.56
2023-01-19T22:46:32.166Z,1.54
2023-01-19T22:48:59.898Z,1.52
2023-01-19T22:51:28.619Z,1.51
2023-01-19T22:53:55.494Z,1.50
2023-01-19T22:56:27.929Z,1.49
2023-01-19T22:58:55.123Z,1.49
2023-01-19T23:01:24.978Z,1.49
2023-01-19T23:03:53.090Z,1.52
2023-01-19T23:06:23.862Z,1.55
2023-01-19T23:08:51.613Z,1.55
2023-01-19T23:11:21.368Z,1.52
2023-01-19T23:13:48.741Z,1.47
2023-01-19T23:16:15.879Z,1.45
2023-01-19T23:18:43.859Z,1.43
2023-01-19T23:21:12.468Z,1.42
2023-01-19T23:23:39.955Z,1.42
2023-01-19T23:26:12.341Z,1.46
2023-01-19T23:28:39.627Z,1.47
2023-01-19T23:31:14.326Z,1.46
2023-01-19T23:33:41.876Z,1.45
2023-01-19T23:36:08.827Z,1.43
2023-01-19T23:38:35.657Z,1.39
2023-01-19T23:41:02.415Z,1.34
2023-01-19T23:43:29.318Z,1.30
2023-01-19T23:45:56.406Z,1.30
2023-01-19T23:48:23.339Z,1.29
2023-01-19T23:50:50.148Z,1.29
2023-01-19T23:53:17.055Z,1.31
2023-01-19T23:55:43.810Z,1.32
2023-01-19T23:58:10.563Z,1.30
